sensor_id;sensor_type;location;lat;lon;timestamp;temperature;humidity
28761;DHT22;15917;50.014;8.352;2023-11-19T00:02:21;8.20;99.90
28761;DHT22;15917;50.014;8.352;2023-11-19T00:04:47;8.20;99.90
28761;DHT22;15917;50.014;8.352;2023-11-19T00:07:13;8.20;99.90
28761;DHT22;15917;50.014;8.352;2023-11-19T00:09:39;8.20;99.90
28761;DHT22;15917;50.014;8.352;2023-11-19T00:12:06;8.20;99.90
28761;DHT22;15917;50.014;8.352;2023-11-19T00:14:32;8.30;99.90
28761;DHT22;15917;50.014;8.352;2023-11-19T00:16:58;8.30;99.90
28761;DHT22;15917;50.014;8.352;2023-11-19T00:19:23;8.30;99.90
28761;DHT22;15917;50.014;8.352;2023-11-19T00:21:49;8.30;99.90
28761;DHT22;15917;50.014;8.352;2023-11-19T00:24:15;8.30;99.90
28761;DHT22;15917;50.014;8.352;2023-11-19T00:26:44;8.30;99.90
28761;DHT22;15917;50.014;8.352;2023-11-19T00:29:10;8.40;99.90
28761;DHT22;15917;50.014;8.352;2023-11-19T00:31:36;8.30;99.90
28761;DHT22;15917;50.014;8.352;2023-11-19T00:34:02;8.40;99.90
28761;DHT22;15917;50.014;8.352;2023-11-19T00:36:28;8.40;99.90
28761;DHT22;15917;50.014;8.352;2023-11-19T00:38:54;8.40;99.90
28761;DHT22;15917;50.014;8.352;2023-11-19T00:41:20;8.30;99.90
28761;DHT22;15917;50.014;8.352;2023-11-19T00:43:46;8.30;99.90
28761;DHT22;15917;50.014;8.352;2023-11-19T00:46:12;8.30;99.90
28761;DHT22;15917;50.014;8.352;2023-11-19T00:48:39;8.30;99.90
28761;DHT22;15917;50.014;8.352;2023-11-19T00:51:06;8.30;99.90
28761;DHT22;15917;50.014;8.352;2023-11-19T00:53:31;8.30;99.90
28761;DHT22;15917;50.014;8.352;2023-11-19T00:56:00;8.30;99.90
28761;DHT22;15917;50.014;8.352;2023-11-19T00:58:26;8.30;99.90
28761;DHT22;15917;50.014;8.352;2023-11-19T01:00:52;8.30;99.90
28761;DHT22;15917;50.014;8.352;2023-11-19T01:03:18;8.30;99.90
28761;DHT22;15917;50.014;8.352;2023-11-19T01:05:44;8.30;99.90
28761;DHT22;15917;50.014;8.352;2023-11-19T01:08:10;8.30;99.90
28761;DHT22;15917;50.014;8.352;2023-11-19T01:10:39;8.30;99.90
28761;DHT22;15917;50.014;8.352;2023-11-19T01:13:04;8.30;99.90
28761;DHT22;15917;50.014;8.352;2023-11-19T01:15:34;8.30;99.90
28761;DHT22;15917;50.014;8.352;2023-11-19T01:18:00;8.30;99.90
28761;DHT22;15917;50.014;8.352;2023-11-19T01:20:27;8.30;99.90
28761;DHT22;15917;50.014;8.352;2023-11-19T01:22:54;8.30;99.90
28761;DHT22;15917;50.014;8.352;2023-11-19T01:25:19;8.30;99.90
28761;DHT22;15917;50.014;8.352;2023-11-19T01:27:45;8.30;99.90
28761;DHT22;15917;50.014;8.352;2023-11-19T01:30:11;8.30;99.90
28761;DHT22;15917;50.014;8.352;2023-11-19T01:32:39;8.30;99.90
28761;DHT22;15917;50.014;8.352;2023-11-19T01:35:08;8.30;99.90
28761;DHT22;15917;50.014;8.352;2023-11-19T01:37:34;8.30;99.90
28761;DHT22;15917;50.014;8.352;2023-11-19T01:40:03;8.30;99.90
28761;DHT22;15917;50.014;8.352;2023-11-19T01:42:40;8.30;99.90
28761;DHT22;15917;50.014;8.352;2023-11-19T01:45:06;8.40;99.90
28761;DHT22;15917;50.014;8.352;2023-11-19T01:47:34;8.40;99.90
28761;DHT22;15917;50.014;8.352;2023-11-19T01:50:01;8.40;99.90
28761;DHT22;15917;50.014;8.352;2023-11-19T01:52:34;8.40;99.90
28761;DHT22;15917;50.014;8.352;2023-11-19T01:55:02;8.40;99.90
28761;DHT22;15917;50.014;8.352;2023-11-19T01:57:28;8.40;99.90
28761;DHT22;15917;50.014;8.352;2023-11-19T01:59:54;8.40;99.90
28761;DHT22;15917;50.014;8.352;2023-11-19T02:02:19;8.40;99.90
28761;DHT22;15917;50.014;8.352;2023-11-19T02:04:47;8.40;99.90
28761;DHT22;15917;50.014;8.352;2023-11-19T02:07:14;8.40;99.90
28761;DHT22;15917;50.014;8.352;2023-11-19T02:09:43;8.40;99.90
28761;DHT22;15917;50.014;8.352;2023-11-19T02:12:09;8.40;99.90
28761;DHT22;15917;50.014;8.352;2023-11-19T02:14:35;8.40;99.90
28761;DHT22;15917;50.014;8.352;2023-11-19T02:17:01;8.50;99.90
28761;DHT22;15917;50.014;8.352;2023-11-19T02:19:27;8.50;99.90
28761;DHT22;15917;50.014;8.352;2023-11-19T02:21:53;8.50;99.90
28761;DHT22;15917;50.014;8.352;2023-11-19T02:24:22;8.50;99.90
28761;DHT22;15917;50.014;8.352;2023-11-19T02:27:44;8.50;99.90
28761;DHT22;15917;50.014;8.352;2023-11-19T02:29:49;8.50;99.90
28761;DHT22;15917;50.014;8.352;2023-11-19T02:32:16;8.50;99.90
28761;DHT22;15917;50.014;8.352;2023-11-19T02:34:42;8.50;99.90
28761;DHT22;15917;50.014;8.352;2023-11-19T02:37:07;8.50;99.90
28761;DHT22;15917;50.014;8.352;2023-11-19T02:39:33;8.60;99.90
28761;DHT22;15917;50.014;8.352;2023-11-19T02:41:59;8.60;99.90
28761;DHT22;15917;50.014;8.352;2023-11-19T02:44:25;8.60;99.90
28761;DHT22;15917;50.014;8.352;2023-11-19T02:46:53;8.60;99.90
28761;DHT22;15917;50.014;8.352;2023-11-19T02:49:19;8.60;99.90
28761;DHT22;15917;50.014;8.352;2023-11-19T02:51:45;8.60;99.90
28761;DHT22;15917;50.014;8.352;2023-11-19T02:54:10;8.60;99.90
28761;DHT22;15917;50.014;8.352;2023-11-19T02:56:36;8.60;99.90
28761;DHT22;15917;50.014;8.352;2023-11-19T02:59:02;8.70;99.90
28761;DHT22;15917;50.014;8.352;2023-11-19T03:01:40;8.70;99.90
28761;DHT22;15917;50.014;8.352;2023-11-19T03:04:09;8.70;99.90
28761;DHT22;15917;50.014;8.352;2023-11-19T03:06:37;8.70;99.90
28761;DHT22;15917;50.014;8.352;2023-11-19T03:09:03;8.70;99.90
28761;DHT22;15917;50.014;8.352;2023-11-19T03:11:33;8.70;99.90
28761;DHT22;15917;50.014;8.352;2023-11-19T03:13:59;8.70;99.90
28761;DHT22;15917;50.014;8.352;2023-11-19T03:16:25;8.70;99.90
28761;DHT22;15917;50.014;8.352;2023-11-19T03:18:50;8.70;99.90
28761;DHT22;15917;50.014;8.352;2023-11-19T03:21:16;8.70;99.90
28761;DHT22;15917;50.014;8.352;2023-11-19T03:23:41;8.70;99.90
28761;DHT22;15917;50.014;8.352;2023-11-19T03:26:10;8.80;99.90
28761;DHT22;15917;50.014;8.352;2023-11-19T03:28:36;8.80;99.90
28761;DHT22;15917;50.014;8.352;2023-11-19T03:31:04;8.80;99.90
28761;DHT22;15917;50.014;8.352;2023-11-19T03:33:34;8.80;99.90
28761;DHT22;15917;50.014;8.352;2023-11-19T03:36:00;8.80;99.90
28761;DHT22;15917;50.014;8.352;2023-11-19T03:38:28;8.80;99.90
28761;DHT22;15917;50.014;8.352;2023-11-19T03:40:54;8.80;99.90
28761;DHT22;15917;50.014;8.352;2023-11-19T03:43:22;8.90;99.90
28761;DHT22;15917;50.014;8.352;2023-11-19T03:45:48;8.90;99.90
28761;DHT22;15917;50.014;8.352;2023-11-19T03:48:14;8.90;99.90
28761;DHT22;15917;50.014;8.352;2023-11-19T03:50:42;8.90;99.90
28761;DHT22;15917;50.014;8.352;2023-11-19T03:53:08;8.90;99.90
28761;DHT22;15917;50.014;8.352;2023-11-19T03:55:34;8.90;99.90
28761;DHT22;15917;50.014;8.352;2023-11-19T03:57:59;8.90;99.90
28761;DHT22;15917;50.014;8.352;2023-11-19T04:00:25;9.00;99.90
28761;DHT22;15917;50.014;8.352;2023-11-19T04:02:50;9.00;99.90
28761;DHT22;15917;50.014;8.352;2023-11-19T04:05:16;9.00;99.90
28761;DHT22;15917;50.014;8.352;2023-11-19T04:07:44;9.00;99.90
28761;DHT22;15917;50.014;8.352;2023-11-19T04:10:11;9.00;99.90
28761;DHT22;15917;50.014;8.352;2023-11-19T04:12:36;9.00;99.90
28761;DHT22;15917;50.014;8.352;2023-11-19T04:15:02;9.10;99.90
28761;DHT22;15917;50.014;8.352;2023-11-19T04:17:28;9.00;99.90
28761;DHT22;15917;50.014;8.352;2023-11-19T04:19:54;9.00;99.90
28761;DHT22;15917;50.014;8.352;2023-11-19T04:22:21;9.10;99.90
28761;DHT22;15917;50.014;8.352;2023-11-19T04:24:46;9.10;99.90
28761;DHT22;15917;50.014;8.352;2023-11-19T04:27:12;9.10;99.90
28761;DHT22;15917;50.014;8.352;2023-11-19T04:29:39;9.10;99.90
28761;DHT22;15917;50.014;8.352;2023-11-19T04:32:05;9.10;99.90
28761;DHT22;15917;50.014;8.352;2023-11-19T04:34:30;9.10;99.90
28761;DHT22;15917;50.014;8.352;2023-11-19T04:36:56;9.20;99.90
28761;DHT22;15917;50.014;8.352;2023-11-19T04:39:22;9.20;99.90
28761;DHT22;15917;50.014;8.352;2023-11-19T04:41:48;9.20;99.90
28761;DHT22;15917;50.014;8.352;2023-11-19T04:44:15;9.20;99.90
28761;DHT22;15917;50.014;8.352;2023-11-19T04:46:41;9.20;99.90
28761;DHT22;15917;50.014;8.352;2023-11-19T04:49:09;9.20;99.90
28761;DHT22;15917;50.014;8.352;2023-11-19T04:51:43;9.20;99.90
28761;DHT22;15917;50.014;8.352;2023-11-19T04:54:09;9.20;99.90
28761;DHT22;15917;50.014;8.352;2023-11-19T04:56:36;9.20;99.90
28761;DHT22;15917;50.014;8.352;2023-11-19T04:59:03;9.20;99.90
28761;DHT22;15917;50.014;8.352;2023-11-19T05:01:33;9.20;99.90
28761;DHT22;15917;50.014;8.352;2023-11-19T05:03:59;9.20;99.90
28761;DHT22;15917;50.014;8.352;2023-11-19T05:06:29;9.20;99.90
28761;DHT22;15917;50.014;8.352;2023-11-19T05:08:59;9.20;99.90
28761;DHT22;15917;50.014;8.352;2023-11-19T05:11:30;9.20;99.90
28761;DHT22;15917;50.014;8.352;2023-11-19T05:13:56;9.30;99.90
28761;DHT22;15917;50.014;8.352;2023-11-19T05:16:21;9.20;99.90
28761;DHT22;15917;50.014;8.352;2023-11-19T05:18:47;9.30;99.90
28761;DHT22;15917;50.014;8.352;2023-11-19T05:21:13;9.30;99.90
28761;DHT22;15917;50.014;8.352;2023-11-19T05:23:39;9.30;99.90
28761;DHT22;15917;50.014;8.352;2023-11-19T05:26:05;9.40;99.90
28761;DHT22;15917;50.014;8.352;2023-11-19T05:28:30;9.40;99.90
28761;DHT22;15917;50.014;8.352;2023-11-19T05:30:56;9.30;99.90
28761;DHT22;15917;50.014;8.352;2023-11-19T05:33:22;9.40;99.90
28761;DHT22;15917;50.014;8.352;2023-11-19T05:35:47;9.40;99.90
28761;DHT22;15917;50.014;8.352;2023-11-19T05:38:13;9.40;99.90
28761;DHT22;15917;50.014;8.352;2023-11-19T05:40:41;9.40;99.90
28761;DHT22;15917;50.014;8.352;2023-11-19T05:43:07;9.40;99.90
28761;DHT22;15917;50.014;8.352;2023-11-19T05:45:32;9.40;99.90
28761;DHT22;15917;50.014;8.352;2023-11-19T05:47:58;9.50;99.90
28761;DHT22;15917;50.014;8.352;2023-11-19T05:50:23;9.50;99.90
28761;DHT22;15917;50.014;8.352;2023-11-19T05:52:50;9.50;99.90
28761;DHT22;15917;50.014;8.352;2023-11-19T05:55:15;9.40;99.90
28761;DHT22;15917;50.014;8.352;2023-11-19T05:57:41;9.50;99.90
28761;DHT22;15917;50.014;8.352;2023-11-19T06:00:07;9.50;99.90
28761;DHT22;15917;50.014;8.352;2023-11-19T06:02:37;9.50;99.90
28761;DHT22;15917;50.014;8.352;2023-11-19T06:05:05;9.50;99.90
28761;DHT22;15917;50.014;8.352;2023-11-19T06:07:33;9.50;99.90
28761;DHT22;15917;50.014;8.352;2023-11-19T06:09:59;9.50;99.90
28761;DHT22;15917;50.014;8.352;2023-11-19T06:12:24;9.50;99.90
28761;DHT22;15917;50.014;8.352;2023-11-19T06:14:50;9.60;99.90
28761;DHT22;15917;50.014;8.352;2023-11-19T06:17:16;9.60;99.90
28761;DHT22;15917;50.014;8.352;2023-11-19T06:19:41;9.60;99.90
28761;DHT22;15917;50.014;8.352;2023-11-19T06:22:07;9.70;99.90
28761;DHT22;15917;50.014;8.352;2023-11-19T06:24:32;9.70;99.90
28761;DHT22;15917;50.014;8.352;2023-11-19T06:26:58;9.60;99.90
28761;DHT22;15917;50.014;8.352;2023-11-19T06:29:23;9.70;99.90
28761;DHT22;15917;50.014;8.352;2023-11-19T06:31:50;9.70;99.90
28761;DHT22;15917;50.014;8.352;2023-11-19T06:34:16;9.70;99.90
28761;DHT22;15917;50.014;8.352;2023-11-19T06:36:41;9.80;99.90
28761;DHT22;15917;50.014;8.352;2023-11-19T06:39:09;9.80;99.90
28761;DHT22;15917;50.014;8.352;2023-11-19T06:41:36;9.90;99.90
28761;DHT22;15917;50.014;8.352;2023-11-19T06:44:04;9.90;99.90
28761;DHT22;15917;50.014;8.352;2023-11-19T06:46:30;10.00;99.90
28761;DHT22;15917;50.014;8.352;2023-11-19T06:48:56;10.00;99.90
28761;DHT22;15917;50.014;8.352;2023-11-19T06:51:22;10.00;99.90
28761;DHT22;15917;50.014;8.352;2023-11-19T06:53:49;10.00;99.90
28761;DHT22;15917;50.014;8.352;2023-11-19T06:56:23;10.00;99.90
28761;DHT22;15917;50.014;8.352;2023-11-19T06:58:52;10.00;99.90
28761;DHT22;15917;50.014;8.352;2023-11-19T07:01:18;10.00;99.90
28761;DHT22;15917;50.014;8.352;2023-11-19T07:03:45;10.00;99.90
28761;DHT22;15917;50.014;8.352;2023-11-19T07:06:11;10.00;99.90
28761;DHT22;15917;50.014;8.352;2023-11-19T07:08:38;10.00;99.90
28761;DHT22;15917;50.014;8.352;2023-11-19T07:11:04;10.00;99.90
28761;DHT22;15917;50.014;8.352;2023-11-19T07:13:30;10.00;99.90
28761;DHT22;15917;50.014;8.352;2023-11-19T07:15:56;10.00;99.90
28761;DHT22;15917;50.014;8.352;2023-11-19T07:18:22;10.00;99.90
28761;DHT22;15917;50.014;8.352;2023-11-19T07:20:48;10.10;99.90
28761;DHT22;15917;50.014;8.352;2023-11-19T07:23:14;10.20;99.90
28761;DHT22;15917;50.014;8.352;2023-11-19T07:25:43;10.10;99.90
28761;DHT22;15917;50.014;8.352;2023-11-19T07:28:10;10.10;99.90
28761;DHT22;15917;50.014;8.352;2023-11-19T07:30:35;10.10;99.90
28761;DHT22;15917;50.014;8.352;2023-11-19T07:33:03;10.10;99.90
28761;DHT22;15917;50.014;8.352;2023-11-19T07:35:29;10.10;99.90
28761;DHT22;15917;50.014;8.352;2023-11-19T07:37:58;10.20;99.90
28761;DHT22;15917;50.014;8.352;2023-11-19T07:40:24;10.20;99.90
28761;DHT22;15917;50.014;8.352;2023-11-19T07:42:50;10.30;99.90
28761;DHT22;15917;50.014;8.352;2023-11-19T07:45:16;10.50;99.90
28761;DHT22;15917;50.014;8.352;2023-11-19T07:47:43;10.60;99.90
28761;DHT22;15917;50.014;8.352;2023-11-19T07:50:10;10.60;99.90
28761;DHT22;15917;50.014;8.352;2023-11-19T07:52:37;10.50;99.90
28761;DHT22;15917;50.014;8.352;2023-11-19T07:55:03;10.40;99.90
28761;DHT22;15917;50.014;8.352;2023-11-19T07:57:28;10.30;99.90
28761;DHT22;15917;50.014;8.352;2023-11-19T07:59:56;10.30;99.90
28761;DHT22;15917;50.014;8.352;2023-11-19T08:02:22;10.30;99.90
28761;DHT22;15917;50.014;8.352;2023-11-19T08:04:49;10.40;99.90
28761;DHT22;15917;50.014;8.352;2023-11-19T08:07:17;10.50;99.90
28761;DHT22;15917;50.014;8.352;2023-11-19T08:09:43;10.70;99.90
28761;DHT22;15917;50.014;8.352;2023-11-19T08:12:09;11.00;99.90
28761;DHT22;15917;50.014;8.352;2023-11-19T08:14:35;11.10;99.90
28761;DHT22;15917;50.014;8.352;2023-11-19T08:17:00;11.30;99.90
28761;DHT22;15917;50.014;8.352;2023-11-19T08:19:26;11.70;99.90
28761;DHT22;15917;50.014;8.352;2023-11-19T08:21:51;12.10;99.90
28761;DHT22;15917;50.014;8.352;2023-11-19T08:24:17;12.50;99.90
28761;DHT22;15917;50.014;8.352;2023-11-19T08:26:43;12.60;99.90
28761;DHT22;15917;50.014;8.352;2023-11-19T08:29:09;12.60;99.90
28761;DHT22;15917;50.014;8.352;2023-11-19T08:31:34;12.90;99.90
28761;DHT22;15917;50.014;8.352;2023-11-19T08:34:01;13.10;99.90
28761;DHT22;15917;50.014;8.352;2023-11-19T08:36:26;13.20;99.90
28761;DHT22;15917;50.014;8.352;2023-11-19T08:38:53;12.90;99.90
28761;DHT22;15917;50.014;8.352;2023-11-19T08:41:19;12.70;99.90
28761;DHT22;15917;50.014;8.352;2023-11-19T08:43:45;12.50;99.90
28761;DHT22;15917;50.014;8.352;2023-11-19T08:46:11;12.50;99.90
28761;DHT22;15917;50.014;8.352;2023-11-19T08:48:37;12.90;99.90
28761;DHT22;15917;50.014;8.352;2023-11-19T08:51:03;13.00;99.90
28761;DHT22;15917;50.014;8.352;2023-11-19T08:53:30;13.00;99.90
28761;DHT22;15917;50.014;8.352;2023-11-19T08:55:55;12.80;99.90
28761;DHT22;15917;50.014;8.352;2023-11-19T08:58:21;12.60;99.90
28761;DHT22;15917;50.014;8.352;2023-11-19T09:00:47;12.40;99.90
28761;DHT22;15917;50.014;8.352;2023-11-19T09:03:12;12.30;99.90
28761;DHT22;15917;50.014;8.352;2023-11-19T09:05:38;12.20;99.90
28761;DHT22;15917;50.014;8.352;2023-11-19T09:08:04;12.20;99.90
28761;DHT22;15917;50.014;8.352;2023-11-19T09:10:30;12.10;99.90
28761;DHT22;15917;50.014;8.352;2023-11-19T09:12:55;12.10;99.90
28761;DHT22;15917;50.014;8.352;2023-11-19T09:15:21;12.30;99.90
28761;DHT22;15917;50.014;8.352;2023-11-19T09:17:46;13.00;99.90
28761;DHT22;15917;50.014;8.352;2023-11-19T09:20:12;13.80;99.90
28761;DHT22;15917;50.014;8.352;2023-11-19T09:22:40;14.40;99.90
28761;DHT22;15917;50.014;8.352;2023-11-19T09:25:06;14.90;99.90
28761;DHT22;15917;50.014;8.352;2023-11-19T09:27:32;15.50;99.90
28761;DHT22;15917;50.014;8.352;2023-11-19T09:29:58;15.80;99.90
28761;DHT22;15917;50.014;8.352;2023-11-19T09:32:24;16.20;99.90
28761;DHT22;15917;50.014;8.352;2023-11-19T09:34:50;16.50;99.90
28761;DHT22;15917;50.014;8.352;2023-11-19T09:37:16;16.70;99.90
28761;DHT22;15917;50.014;8.352;2023-11-19T09:39:42;17.00;99.90
28761;DHT22;15917;50.014;8.352;2023-11-19T09:42:11;17.50;99.90
28761;DHT22;15917;50.014;8.352;2023-11-19T09:44:38;17.80;99.90
28761;DHT22;15917;50.014;8.352;2023-11-19T09:47:06;18.10;99.90
28761;DHT22;15917;50.014;8.352;2023-11-19T09:49:33;18.30;99.90
28761;DHT22;15917;50.014;8.352;2023-11-19T09:52:01;18.60;99.90
28761;DHT22;15917;50.014;8.352;2023-11-19T09:54:27;18.90;99.90
28761;DHT22;15917;50.014;8.352;2023-11-19T09:56:52;18.80;99.90
28761;DHT22;15917;50.014;8.352;2023-11-19T09:59:18;19.00;99.90
28761;DHT22;15917;50.014;8.352;2023-11-19T10:01:45;19.00;99.90
28761;DHT22;15917;50.014;8.352;2023-11-19T10:04:15;18.70;99.90
28761;DHT22;15917;50.014;8.352;2023-11-19T10:06:42;18.50;99.90
28761;DHT22;15917;50.014;8.352;2023-11-19T10:09:07;18.20;99.90
28761;DHT22;15917;50.014;8.352;2023-11-19T10:11:33;18.20;99.90
28761;DHT22;15917;50.014;8.352;2023-11-19T10:13:59;18.10;99.90
28761;DHT22;15917;50.014;8.352;2023-11-19T10:16:29;18.20;99.90
28761;DHT22;15917;50.014;8.352;2023-11-19T10:18:56;18.20;99.90
28761;DHT22;15917;50.014;8.352;2023-11-19T10:21:22;18.20;99.90
28761;DHT22;15917;50.014;8.352;2023-11-19T10:23:55;18.30;99.90
28761;DHT22;15917;50.014;8.352;2023-11-19T10:26:23;18.10;99.90
28761;DHT22;15917;50.014;8.352;2023-11-19T10:28:49;18.30;99.90
28761;DHT22;15917;50.014;8.352;2023-11-19T10:31:19;18.30;99.90
28761;DHT22;15917;50.014;8.352;2023-11-19T10:33:45;18.30;99.90
28761;DHT22;15917;50.014;8.352;2023-11-19T10:36:12;18.50;99.90
28761;DHT22;15917;50.014;8.352;2023-11-19T10:38:38;18.60;99.90
28761;DHT22;15917;50.014;8.352;2023-11-19T10:41:04;18.60;99.90
28761;DHT22;15917;50.014;8.352;2023-11-19T10:43:31;18.70;99.90
28761;DHT22;15917;50.014;8.352;2023-11-19T10:46:12;18.70;99.90
28761;DHT22;15917;50.014;8.352;2023-11-19T10:48:39;18.60;99.90
28761;DHT22;15917;50.014;8.352;2023-11-19T10:51:07;18.60;99.90
28761;DHT22;15917;50.014;8.352;2023-11-19T10:53:37;18.10;99.90
28761;DHT22;15917;50.014;8.352;2023-11-19T10:56:10;17.10;99.90
28761;DHT22;15917;50.014;8.352;2023-11-19T10:58:37;16.60;99.90
28761;DHT22;15917;50.014;8.352;2023-11-19T11:01:19;16.10;99.90
28761;DHT22;15917;50.014;8.352;2023-11-19T11:03:46;15.80;99.90
28761;DHT22;15917;50.014;8.352;2023-11-19T11:06:13;15.60;99.90
28761;DHT22;15917;50.014;8.352;2023-11-19T11:08:39;15.90;99.90
28761;DHT22;15917;50.014;8.352;2023-11-19T11:11:05;16.30;99.90
28761;DHT22;15917;50.014;8.352;2023-11-19T11:13:33;16.50;99.90
28761;DHT22;15917;50.014;8.352;2023-11-19T11:15:59;17.10;99.90
28761;DHT22;15917;50.014;8.352;2023-11-19T11:18:26;17.10;99.90
28761;DHT22;15917;50.014;8.352;2023-11-19T11:20:59;16.80;99.90
28761;DHT22;15917;50.014;8.352;2023-11-19T11:30:00;17.60;99.90
28761;DHT22;15917;50.014;8.352;2023-11-19T11:32:53;17.70;99.90
28761;DHT22;15917;50.014;8.352;2023-11-19T11:35:43;17.80;99.90
28761;DHT22;15917;50.014;8.352;2023-11-19T11:38:14;17.40;99.90
28761;DHT22;15917;50.014;8.352;2023-11-19T11:40:40;17.30;99.90
28761;DHT22;15917;50.014;8.352;2023-11-19T11:49:10;17.80;99.90
28761;DHT22;15917;50.014;8.352;2023-11-19T11:54:26;17.70;99.90
28761;DHT22;15917;50.014;8.352;2023-11-19T11:57:13;18.20;99.90
28761;DHT22;15917;50.014;8.352;2023-11-19T12:02:08;18.50;99.90
28761;DHT22;15917;50.014;8.352;2023-11-19T12:04:35;18.50;99.90
28761;DHT22;15917;50.014;8.352;2023-11-19T12:07:05;18.80;99.90
28761;DHT22;15917;50.014;8.352;2023-11-19T12:09:32;18.80;99.90
28761;DHT22;15917;50.014;8.352;2023-11-19T12:12:18;19.00;99.90
28761;DHT22;15917;50.014;8.352;2023-11-19T12:15:01;18.90;99.90
28761;DHT22;15917;50.014;8.352;2023-11-19T12:20:08;19.10;99.90
28761;DHT22;15917;50.014;8.352;2023-11-19T12:22:41;19.30;99.90
28761;DHT22;15917;50.014;8.352;2023-11-19T12:25:09;19.40;99.90
28761;DHT22;15917;50.014;8.352;2023-11-19T12:27:35;19.30;99.90
28761;DHT22;15917;50.014;8.352;2023-11-19T12:30:02;19.20;99.90
28761;DHT22;15917;50.014;8.352;2023-11-19T12:32:44;19.50;99.90
28761;DHT22;15917;50.014;8.352;2023-11-19T12:35:11;19.80;99.90
28761;DHT22;15917;50.014;8.352;2023-11-19T12:37:44;20.30;99.90
28761;DHT22;15917;50.014;8.352;2023-11-19T12:40:18;20.50;99.90
28761;DHT22;15917;50.014;8.352;2023-11-19T12:42:48;20.70;99.90
28761;DHT22;15917;50.014;8.352;2023-11-19T12:45:14;20.20;99.90
28761;DHT22;15917;50.014;8.352;2023-11-19T12:47:42;20.20;99.90
28761;DHT22;15917;50.014;8.352;2023-11-19T12:50:08;19.70;99.90
28761;DHT22;15917;50.014;8.352;2023-11-19T12:52:38;19.60;99.90
28761;DHT22;15917;50.014;8.352;2023-11-19T12:55:27;19.40;99.90
28761;DHT22;15917;50.014;8.352;2023-11-19T12:57:53;19.10;99.90
28761;DHT22;15917;50.014;8.352;2023-11-19T13:00:25;19.10;99.90
28761;DHT22;15917;50.014;8.352;2023-11-19T13:02:55;18.60;99.90
28761;DHT22;15917;50.014;8.352;2023-11-19T13:05:30;17.90;99.90
28761;DHT22;15917;50.014;8.352;2023-11-19T13:08:01;17.50;99.90
28761;DHT22;15917;50.014;8.352;2023-11-19T13:10:27;17.40;99.90
28761;DHT22;15917;50.014;8.352;2023-11-19T13:13:07;17.20;99.90
28761;DHT22;15917;50.014;8.352;2023-11-19T13:15:34;16.80;99.90
28761;DHT22;15917;50.014;8.352;2023-11-19T13:18:00;16.60;99.90
28761;DHT22;15917;50.014;8.352;2023-11-19T13:20:27;16.40;99.90
28761;DHT22;15917;50.014;8.352;2023-11-19T13:23:01;16.70;99.90
28761;DHT22;15917;50.014;8.352;2023-11-19T13:25:27;16.80;99.90
28761;DHT22;15917;50.014;8.352;2023-11-19T13:27:54;17.20;99.90
28761;DHT22;15917;50.014;8.352;2023-11-19T13:30:23;17.60;99.90
28761;DHT22;15917;50.014;8.352;2023-11-19T13:32:50;17.70;99.90
28761;DHT22;15917;50.014;8.352;2023-11-19T13:35:16;17.70;99.90
28761;DHT22;15917;50.014;8.352;2023-11-19T13:37:43;17.40;99.90
28761;DHT22;15917;50.014;8.352;2023-11-19T13:40:09;17.10;99.90
28761;DHT22;15917;50.014;8.352;2023-11-19T13:42:41;17.10;99.90
28761;DHT22;15917;50.014;8.352;2023-11-19T13:45:11;17.20;99.90
28761;DHT22;15917;50.014;8.352;2023-11-19T13:47:40;17.20;99.90
28761;DHT22;15917;50.014;8.352;2023-11-19T13:50:10;17.20;99.90
28761;DHT22;15917;50.014;8.352;2023-11-19T13:52:37;17.00;99.90
28761;DHT22;15917;50.014;8.352;2023-11-19T13:55:07;16.90;99.90
28761;DHT22;15917;50.014;8.352;2023-11-19T13:57:37;16.90;99.90
28761;DHT22;15917;50.014;8.352;2023-11-19T14:00:04;16.80;99.90
28761;DHT22;15917;50.014;8.352;2023-11-19T14:02:42;16.60;99.90
28761;DHT22;15917;50.014;8.352;2023-11-19T14:05:09;16.50;99.90
28761;DHT22;15917;50.014;8.352;2023-11-19T14:07:36;16.40;99.90
28761;DHT22;15917;50.014;8.352;2023-11-19T14:10:02;16.30;99.90
28761;DHT22;15917;50.014;8.352;2023-11-19T14:12:28;16.30;99.90
28761;DHT22;15917;50.014;8.352;2023-11-19T14:14:53;16.10;99.90
28761;DHT22;15917;50.014;8.352;2023-11-19T14:17:20;16.00;99.90
28761;DHT22;15917;50.014;8.352;2023-11-19T14:19:46;15.90;99.90
28761;DHT22;15917;50.014;8.352;2023-11-19T14:22:11;15.70;99.90
28761;DHT22;15917;50.014;8.352;2023-11-19T14:24:37;15.60;99.90
28761;DHT22;15917;50.014;8.352;2023-11-19T14:27:03;15.50;99.90
28761;DHT22;15917;50.014;8.352;2023-11-19T14:29:29;15.40;99.90
28761;DHT22;15917;50.014;8.352;2023-11-19T14:31:56;15.40;99.90
28761;DHT22;15917;50.014;8.352;2023-11-19T14:34:21;15.30;99.90
28761;DHT22;15917;50.014;8.352;2023-11-19T14:36:47;15.30;99.90
28761;DHT22;15917;50.014;8.352;2023-11-19T14:39:13;15.20;99.90
28761;DHT22;15917;50.014;8.352;2023-11-19T14:41:39;15.10;99.90
28761;DHT22;15917;50.014;8.352;2023-11-19T14:44:05;15.00;99.90
28761;DHT22;15917;50.014;8.352;2023-11-19T14:46:31;14.90;99.90
28761;DHT22;15917;50.014;8.352;2023-11-19T14:48:56;14.80;99.90
28761;DHT22;15917;50.014;8.352;2023-11-19T14:51:22;14.80;99.90
28761;DHT22;15917;50.014;8.352;2023-11-19T14:53:47;14.70;99.90
28761;DHT22;15917;50.014;8.352;2023-11-19T14:56:13;14.70;99.90
28761;DHT22;15917;50.014;8.352;2023-11-19T14:58:39;14.60;99.90
28761;DHT22;15917;50.014;8.352;2023-11-19T15:01:05;14.60;99.90
28761;DHT22;15917;50.014;8.352;2023-11-19T15:03:31;14.50;99.90
28761;DHT22;15917;50.014;8.352;2023-11-19T15:05:58;14.40;99.90
28761;DHT22;15917;50.014;8.352;2023-11-19T15:08:23;14.40;99.90
28761;DHT22;15917;50.014;8.352;2023-11-19T15:10:50;14.30;99.90
28761;DHT22;15917;50.014;8.352;2023-11-19T15:13:15;14.30;99.90
28761;DHT22;15917;50.014;8.352;2023-11-19T15:15:41;14.20;99.90
28761;DHT22;15917;50.014;8.352;2023-11-19T15:18:07;14.20;99.90
28761;DHT22;15917;50.014;8.352;2023-11-19T15:20:33;14.20;99.90
28761;DHT22;15917;50.014;8.352;2023-11-19T15:22:58;14.10;99.90
28761;DHT22;15917;50.014;8.352;2023-11-19T15:25:24;14.10;99.90
28761;DHT22;15917;50.014;8.352;2023-11-19T15:27:50;14.00;99.90
28761;DHT22;15917;50.014;8.352;2023-11-19T15:30:16;13.90;99.90
28761;DHT22;15917;50.014;8.352;2023-11-19T15:32:44;13.90;99.90
28761;DHT22;15917;50.014;8.352;2023-11-19T15:35:10;13.90;99.90
28761;DHT22;15917;50.014;8.352;2023-11-19T15:37:36;13.90;99.90
28761;DHT22;15917;50.014;8.352;2023-11-19T15:40:06;13.80;99.90
28761;DHT22;15917;50.014;8.352;2023-11-19T15:42:34;13.70;99.90
28761;DHT22;15917;50.014;8.352;2023-11-19T15:44:59;13.70;99.90
28761;DHT22;15917;50.014;8.352;2023-11-19T15:47:25;13.70;99.90
28761;DHT22;15917;50.014;8.352;2023-11-19T15:49:51;13.70;99.90
28761;DHT22;15917;50.014;8.352;2023-11-19T15:52:16;13.60;99.90
28761;DHT22;15917;50.014;8.352;2023-11-19T15:54:42;13.60;99.90
28761;DHT22;15917;50.014;8.352;2023-11-19T15:57:07;13.60;99.90
28761;DHT22;15917;50.014;8.352;2023-11-19T15:59:33;13.50;99.90